sensor_id;sensor_type;location;lat;lon;timestamp;pressure;altitude;pressure_sealevel;temperature
11792;BMP180;5953;52.372;9.918;2022-07-12T00:00:22;101629.00;;;21.10
11792;BMP180;5953;52.372;9.918;2022-07-12T00:02:51;101626.00;;;21.20
11792;BMP180;5953;52.372;9.918;2022-07-12T00:05:20;101622.00;;;21.10
11792;BMP180;5953;52.372;9.918;2022-07-12T00:07:48;101629.00;;;21.10
11792;BMP180;5953;52.372;9.918;2022-07-12T00:10:16;101626.00;;;21.00
11792;BMP180;5953;52.372;9.918;2022-07-12T00:12:44;101627.00;;;20.90
11792;BMP180;5953;52.372;9.918;2022-07-12T00:15:11;101632.00;;;20.70
11792;BMP180;5953;52.372;9.918;2022-07-12T00:17:39;101640.00;;;20.70
11792;BMP180;5953;52.372;9.918;2022-07-12T00:20:10;101648.00;;;20.70
11792;BMP180;5953;52.372;9.918;2022-07-12T00:22:37;101641.00;;;20.80
11792;BMP180;5953;52.372;9.918;2022-07-12T00:25:06;101645.00;;;20.90
11792;BMP180;5953;52.372;9.918;2022-07-12T00:27:34;101636.00;;;20.90
11792;BMP180;5953;52.372;9.918;2022-07-12T00:30:03;101632.00;;;21.00
11792;BMP180;5953;52.372;9.918;2022-07-12T00:32:31;101650.00;;;20.90
11792;BMP180;5953;52.372;9.918;2022-07-12T00:34:59;101643.00;;;20.80
11792;BMP180;5953;52.372;9.918;2022-07-12T00:37:30;101638.00;;;20.70
11792;BMP180;5953;52.372;9.918;2022-07-12T00:39:58;101635.00;;;20.80
11792;BMP180;5953;52.372;9.918;2022-07-12T00:42:26;101633.00;;;20.60
11792;BMP180;5953;52.372;9.918;2022-07-12T00:44:54;101645.00;;;20.60
11792;BMP180;5953;52.372;9.918;2022-07-12T00:47:33;101627.00;;;20.50
11792;BMP180;5953;52.372;9.918;2022-07-12T00:50:05;101636.00;;;20.50
11792;BMP180;5953;52.372;9.918;2022-07-12T00:52:35;101629.00;;;20.50
11792;BMP180;5953;52.372;9.918;2022-07-12T00:55:04;101635.00;;;20.40
11792;BMP180;5953;52.372;9.918;2022-07-12T00:57:32;101638.00;;;20.40
11792;BMP180;5953;52.372;9.918;2022-07-12T01:00:00;101625.00;;;20.40
11792;BMP180;5953;52.372;9.918;2022-07-12T01:02:28;101625.00;;;20.40
11792;BMP180;5953;52.372;9.918;2022-07-12T01:04:56;101629.00;;;20.40
11792;BMP180;5953;52.372;9.918;2022-07-12T01:07:26;101624.00;;;20.60
11792;BMP180;5953;52.372;9.918;2022-07-12T01:09:55;101617.00;;;20.50
11792;BMP180;5953;52.372;9.918;2022-07-12T01:12:24;101616.00;;;20.50
11792;BMP180;5953;52.372;9.918;2022-07-12T01:14:52;101614.00;;;20.50
11792;BMP180;5953;52.372;9.918;2022-07-12T01:17:22;101614.00;;;20.60
11792;BMP180;5953;52.372;9.918;2022-07-12T01:19:51;101616.00;;;20.70
11792;BMP180;5953;52.372;9.918;2022-07-12T01:22:21;101621.00;;;20.70
11792;BMP180;5953;52.372;9.918;2022-07-12T01:24:54;101627.00;;;20.70
11792;BMP180;5953;52.372;9.918;2022-07-12T01:27:22;101619.00;;;20.70
11792;BMP180;5953;52.372;9.918;2022-07-12T01:29:50;101622.00;;;20.60
11792;BMP180;5953;52.372;9.918;2022-07-12T01:32:18;101620.00;;;20.50
11792;BMP180;5953;52.372;9.918;2022-07-12T01:34:53;101620.00;;;20.50
11792;BMP180;5953;52.372;9.918;2022-07-12T01:37:23;101616.00;;;20.50
11792;BMP180;5953;52.372;9.918;2022-07-12T01:39:53;101614.00;;;20.50
11792;BMP180;5953;52.372;9.918;2022-07-12T01:42:23;101621.00;;;20.60
11792;BMP180;5953;52.372;9.918;2022-07-12T01:44:52;101615.00;;;20.60
11792;BMP180;5953;52.372;9.918;2022-07-12T01:47:22;101615.00;;;20.70
11792;BMP180;5953;52.372;9.918;2022-07-12T01:49:50;101605.00;;;20.70
11792;BMP180;5953;52.372;9.918;2022-07-12T01:52:19;101615.00;;;20.90
11792;BMP180;5953;52.372;9.918;2022-07-12T01:54:47;101615.00;;;20.90
11792;BMP180;5953;52.372;9.918;2022-07-12T01:57:16;101607.00;;;20.80
11792;BMP180;5953;52.372;9.918;2022-07-12T01:59:45;101621.00;;;20.70
11792;BMP180;5953;52.372;9.918;2022-07-12T02:02:13;101606.00;;;20.70
11792;BMP180;5953;52.372;9.918;2022-07-12T02:04:41;101599.00;;;20.70
11792;BMP180;5953;52.372;9.918;2022-07-12T02:07:09;101598.00;;;20.60
11792;BMP180;5953;52.372;9.918;2022-07-12T02:09:36;101602.00;;;20.70
11792;BMP180;5953;52.372;9.918;2022-07-12T02:12:05;101598.00;;;20.70
11792;BMP180;5953;52.372;9.918;2022-07-12T02:14:34;101591.00;;;20.80
11792;BMP180;5953;52.372;9.918;2022-07-12T02:17:02;101604.00;;;21.10
11792;BMP180;5953;52.372;9.918;2022-07-12T02:19:30;101590.00;;;20.90
11792;BMP180;5953;52.372;9.918;2022-07-12T02:21:58;101591.00;;;20.80
11792;BMP180;5953;52.372;9.918;2022-07-12T02:24:26;101592.00;;;20.90
11792;BMP180;5953;52.372;9.918;2022-07-12T02:26:53;101592.00;;;20.90
11792;BMP180;5953;52.372;9.918;2022-07-12T02:29:21;101592.00;;;20.90
11792;BMP180;5953;52.372;9.918;2022-07-12T02:31:50;101599.00;;;21.10
11792;BMP180;5953;52.372;9.918;2022-07-12T02:34:18;101598.00;;;21.10
11792;BMP180;5953;52.372;9.918;2022-07-12T02:36:46;101597.00;;;21.20
11792;BMP180;5953;52.372;9.918;2022-07-12T02:39:14;101598.00;;;21.20
11792;BMP180;5953;52.372;9.918;2022-07-12T02:41:42;101605.00;;;21.20
11792;BMP180;5953;52.372;9.918;2022-07-12T02:44:09;101614.00;;;21.20
11792;BMP180;5953;52.372;9.918;2022-07-12T02:46:38;101606.00;;;21.40
11792;BMP180;5953;52.372;9.918;2022-07-12T02:49:08;101608.00;;;21.50
11792;BMP180;5953;52.372;9.918;2022-07-12T02:51:35;101609.00;;;21.50
11792;BMP180;5953;52.372;9.918;2022-07-12T02:54:03;101606.00;;;21.50
11792;BMP180;5953;52.372;9.918;2022-07-12T02:56:31;101604.00;;;21.10
11792;BMP180;5953;52.372;9.918;2022-07-12T02:58:59;101624.00;;;21.10
11792;BMP180;5953;52.372;9.918;2022-07-12T03:01:27;101625.00;;;21.00
11792;BMP180;5953;52.372;9.918;2022-07-12T03:03:54;101630.00;;;20.90
11792;BMP180;5953;52.372;9.918;2022-07-12T03:06:24;101623.00;;;20.90
11792;BMP180;5953;52.372;9.918;2022-07-12T03:08:52;101632.00;;;21.10
11792;BMP180;5953;52.372;9.918;2022-07-12T03:11:20;101637.00;;;21.10
11792;BMP180;5953;52.372;9.918;2022-07-12T03:13:47;101648.00;;;21.00
11792;BMP180;5953;52.372;9.918;2022-07-12T03:16:15;101646.00;;;21.00
11792;BMP180;5953;52.372;9.918;2022-07-12T03:18:43;101653.00;;;20.90
11792;BMP180;5953;52.372;9.918;2022-07-12T03:21:11;101652.00;;;20.70
11792;BMP180;5953;52.372;9.918;2022-07-12T03:23:40;101655.00;;;20.70
11792;BMP180;5953;52.372;9.918;2022-07-12T03:26:09;101650.00;;;20.80
11792;BMP180;5953;52.372;9.918;2022-07-12T03:28:37;101647.00;;;20.80
11792;BMP180;5953;52.372;9.918;2022-07-12T03:31:05;101650.00;;;20.90
11792;BMP180;5953;52.372;9.918;2022-07-12T03:33:33;101659.00;;;21.00
11792;BMP180;5953;52.372;9.918;2022-07-12T03:36:00;101664.00;;;20.90
11792;BMP180;5953;52.372;9.918;2022-07-12T03:38:28;101665.00;;;20.80
11792;BMP180;5953;52.372;9.918;2022-07-12T03:40:57;101668.00;;;20.80
11792;BMP180;5953;52.372;9.918;2022-07-12T03:43:25;101666.00;;;20.90
11792;BMP180;5953;52.372;9.918;2022-07-12T03:45:53;101671.00;;;20.80
11792;BMP180;5953;52.372;9.918;2022-07-12T03:48:21;101678.00;;;20.80
11792;BMP180;5953;52.372;9.918;2022-07-12T03:50:49;101678.00;;;20.70
11792;BMP180;5953;52.372;9.918;2022-07-12T03:53:17;101678.00;;;20.70
11792;BMP180;5953;52.372;9.918;2022-07-12T03:55:44;101682.00;;;20.60
11792;BMP180;5953;52.372;9.918;2022-07-12T03:58:13;101674.00;;;20.80
11792;BMP180;5953;52.372;9.918;2022-07-12T04:00:42;101683.00;;;20.70
11792;BMP180;5953;52.372;9.918;2022-07-12T04:03:10;101687.00;;;20.80
11792;BMP180;5953;52.372;9.918;2022-07-12T04:05:38;101691.00;;;20.80
11792;BMP180;5953;52.372;9.918;2022-07-12T04:08:06;101682.00;;;20.90
11792;BMP180;5953;52.372;9.918;2022-07-12T04:10:33;101684.00;;;20.90
11792;BMP180;5953;52.372;9.918;2022-07-12T04:13:01;101678.00;;;21.00
11792;BMP180;5953;52.372;9.918;2022-07-12T04:15:30;101678.00;;;20.90
11792;BMP180;5953;52.372;9.918;2022-07-12T04:17:58;101679.00;;;21.00
11792;BMP180;5953;52.372;9.918;2022-07-12T04:20:27;101694.00;;;20.90
11792;BMP180;5953;52.372;9.918;2022-07-12T04:22:54;101691.00;;;21.00
11792;BMP180;5953;52.372;9.918;2022-07-12T04:25:22;101686.00;;;20.90
11792;BMP180;5953;52.372;9.918;2022-07-12T04:27:51;101682.00;;;21.00
11792;BMP180;5953;52.372;9.918;2022-07-12T04:30:22;101699.00;;;21.00
11792;BMP180;5953;52.372;9.918;2022-07-12T04:32:51;101691.00;;;21.00
11792;BMP180;5953;52.372;9.918;2022-07-12T04:35:20;101694.00;;;20.90
11792;BMP180;5953;52.372;9.918;2022-07-12T04:37:47;101701.00;;;21.00
11792;BMP180;5953;52.372;9.918;2022-07-12T04:40:15;101708.00;;;21.10
11792;BMP180;5953;52.372;9.918;2022-07-12T04:42:43;101710.00;;;21.20
11792;BMP180;5953;52.372;9.918;2022-07-12T04:45:11;101699.00;;;21.30
11792;BMP180;5953;52.372;9.918;2022-07-12T04:47:39;101720.00;;;21.20
11792;BMP180;5953;52.372;9.918;2022-07-12T04:50:08;101710.00;;;21.10
11792;BMP180;5953;52.372;9.918;2022-07-12T04:52:36;101712.00;;;21.20
11792;BMP180;5953;52.372;9.918;2022-07-12T04:55:04;101718.00;;;21.10
11792;BMP180;5953;52.372;9.918;2022-07-12T04:57:32;101716.00;;;21.20
11792;BMP180;5953;52.372;9.918;2022-07-12T05:00:00;101714.00;;;21.30
11792;BMP180;5953;52.372;9.918;2022-07-12T05:02:28;101715.00;;;21.20
11792;BMP180;5953;52.372;9.918;2022-07-12T05:04:56;101717.00;;;21.10
11792;BMP180;5953;52.372;9.918;2022-07-12T05:07:25;101718.00;;;21.10
11792;BMP180;5953;52.372;9.918;2022-07-12T05:09:53;101715.00;;;21.20
11792;BMP180;5953;52.372;9.918;2022-07-12T05:12:21;101711.00;;;21.30
11792;BMP180;5953;52.372;9.918;2022-07-12T05:14:49;101718.00;;;21.40
11792;BMP180;5953;52.372;9.918;2022-07-12T05:17:17;101724.00;;;21.50
11792;BMP180;5953;52.372;9.918;2022-07-12T05:19:45;101718.00;;;21.50
11792;BMP180;5953;52.372;9.918;2022-07-12T05:22:13;101729.00;;;21.60
11792;BMP180;5953;52.372;9.918;2022-07-12T05:24:42;101719.00;;;21.50
11792;BMP180;5953;52.372;9.918;2022-07-12T05:27:10;101713.00;;;21.50
11792;BMP180;5953;52.372;9.918;2022-07-12T05:29:37;101719.00;;;21.50
11792;BMP180;5953;52.372;9.918;2022-07-12T05:32:06;101722.00;;;21.60
11792;BMP180;5953;52.372;9.918;2022-07-12T05:34:37;101729.00;;;21.60
11792;BMP180;5953;52.372;9.918;2022-07-12T05:37:04;101717.00;;;21.70
11792;BMP180;5953;52.372;9.918;2022-07-12T05:39:32;101724.00;;;21.70
11792;BMP180;5953;52.372;9.918;2022-07-12T05:42:02;101721.00;;;21.80
11792;BMP180;5953;52.372;9.918;2022-07-12T05:44:30;101735.00;;;21.80
11792;BMP180;5953;52.372;9.918;2022-07-12T05:46:58;101722.00;;;21.80
11792;BMP180;5953;52.372;9.918;2022-07-12T05:49:25;101719.00;;;21.80
11792;BMP180;5953;52.372;9.918;2022-07-12T05:51:53;101728.00;;;21.90
11792;BMP180;5953;52.372;9.918;2022-07-12T05:54:38;101725.00;;;22.00
11792;BMP180;5953;52.372;9.918;2022-07-12T05:57:08;101726.00;;;22.00
11792;BMP180;5953;52.372;9.918;2022-07-12T05:59:36;101713.00;;;21.70
11792;BMP180;5953;52.372;9.918;2022-07-12T06:02:04;101716.00;;;21.70
11792;BMP180;5953;52.372;9.918;2022-07-12T06:04:32;101722.00;;;21.80
11792;BMP180;5953;52.372;9.918;2022-07-12T06:07:00;101724.00;;;21.70
11792;BMP180;5953;52.372;9.918;2022-07-12T06:09:28;101709.00;;;21.40
11792;BMP180;5953;52.372;9.918;2022-07-12T06:11:56;101713.00;;;21.60
11792;BMP180;5953;52.372;9.918;2022-07-12T06:14:25;101707.00;;;21.90
11792;BMP180;5953;52.372;9.918;2022-07-12T06:16:53;101710.00;;;22.10
11792;BMP180;5953;52.372;9.918;2022-07-12T06:19:21;101713.00;;;22.20
11792;BMP180;5953;52.372;9.918;2022-07-12T06:21:50;101713.00;;;22.40
11792;BMP180;5953;52.372;9.918;2022-07-12T06:24:17;101701.00;;;22.70
11792;BMP180;5953;52.372;9.918;2022-07-12T06:26:45;101700.00;;;22.90
11792;BMP180;5953;52.372;9.918;2022-07-12T06:29:13;101706.00;;;23.20
11792;BMP180;5953;52.372;9.918;2022-07-12T06:31:42;101706.00;;;23.50
11792;BMP180;5953;52.372;9.918;2022-07-12T06:34:11;101706.00;;;23.60
11792;BMP180;5953;52.372;9.918;2022-07-12T06:36:38;101713.00;;;23.50
11792;BMP180;5953;52.372;9.918;2022-07-12T06:39:10;101717.00;;;23.80
11792;BMP180;5953;52.372;9.918;2022-07-12T06:41:37;101707.00;;;23.90
11792;BMP180;5953;52.372;9.918;2022-07-12T06:44:05;101711.00;;;24.10
11792;BMP180;5953;52.372;9.918;2022-07-12T06:46:34;101718.00;;;23.80
11792;BMP180;5953;52.372;9.918;2022-07-12T06:49:05;101716.00;;;24.10
11792;BMP180;5953;52.372;9.918;2022-07-12T06:51:33;101719.00;;;24.20
11792;BMP180;5953;52.372;9.918;2022-07-12T06:54:01;101726.00;;;24.00
11792;BMP180;5953;52.372;9.918;2022-07-12T06:56:29;101716.00;;;23.90
11792;BMP180;5953;52.372;9.918;2022-07-12T06:58:57;101720.00;;;24.10
11792;BMP180;5953;52.372;9.918;2022-07-12T07:01:26;101720.00;;;24.00
11792;BMP180;5953;52.372;9.918;2022-07-12T07:03:54;101718.00;;;24.00
11792;BMP180;5953;52.372;9.918;2022-07-12T07:06:23;101721.00;;;23.80
11792;BMP180;5953;52.372;9.918;2022-07-12T07:08:51;101717.00;;;23.80
11792;BMP180;5953;52.372;9.918;2022-07-12T07:11:18;101708.00;;;24.10
11792;BMP180;5953;52.372;9.918;2022-07-12T07:13:46;101710.00;;;24.00
11792;BMP180;5953;52.372;9.918;2022-07-12T07:16:18;101719.00;;;24.30
11792;BMP180;5953;52.372;9.918;2022-07-12T07:18:46;101715.00;;;24.40
11792;BMP180;5953;52.372;9.918;2022-07-12T07:21:14;101721.00;;;24.60
11792;BMP180;5953;52.372;9.918;2022-07-12T07:23:43;101716.00;;;24.80
11792;BMP180;5953;52.372;9.918;2022-07-12T07:26:11;101714.00;;;24.80
11792;BMP180;5953;52.372;9.918;2022-07-12T07:28:39;101721.00;;;25.00
11792;BMP180;5953;52.372;9.918;2022-07-12T07:31:21;101719.00;;;25.50
11792;BMP180;5953;52.372;9.918;2022-07-12T07:33:49;101704.00;;;24.80
11792;BMP180;5953;52.372;9.918;2022-07-12T07:36:17;101715.00;;;24.90
11792;BMP180;5953;52.372;9.918;2022-07-12T07:38:46;101718.00;;;25.10
11792;BMP180;5953;52.372;9.918;2022-07-12T07:41:14;101718.00;;;25.50
11792;BMP180;5953;52.372;9.918;2022-07-12T07:44:06;101718.00;;;25.70
11792;BMP180;5953;52.372;9.918;2022-07-12T07:46:34;101723.00;;;25.60
11792;BMP180;5953;52.372;9.918;2022-07-12T07:49:02;101720.00;;;25.90
11792;BMP180;5953;52.372;9.918;2022-07-12T07:51:30;101718.00;;;26.20
11792;BMP180;5953;52.372;9.918;2022-07-12T07:53:59;101721.00;;;26.10
11792;BMP180;5953;52.372;9.918;2022-07-12T07:56:29;101722.00;;;26.60
11792;BMP180;5953;52.372;9.918;2022-07-12T07:58:57;101702.00;;;26.90
11792;BMP180;5953;52.372;9.918;2022-07-12T08:01:24;101715.00;;;26.70
11792;BMP180;5953;52.372;9.918;2022-07-12T08:04:06;101720.00;;;27.10
11792;BMP180;5953;52.372;9.918;2022-07-12T08:06:34;101728.00;;;26.90
11792;BMP180;5953;52.372;9.918;2022-07-12T08:09:03;101721.00;;;26.80
11792;BMP180;5953;52.372;9.918;2022-07-12T08:11:39;101709.00;;;27.40
11792;BMP180;5953;52.372;9.918;2022-07-12T08:14:08;101701.00;;;27.60
11792;BMP180;5953;52.372;9.918;2022-07-12T08:16:36;101706.00;;;27.70
11792;BMP180;5953;52.372;9.918;2022-07-12T08:19:05;101707.00;;;27.60
11792;BMP180;5953;52.372;9.918;2022-07-12T08:21:33;101711.00;;;27.20
11792;BMP180;5953;52.372;9.918;2022-07-12T08:24:01;101708.00;;;26.70
11792;BMP180;5953;52.372;9.918;2022-07-12T08:26:30;101710.00;;;27.00
11792;BMP180;5953;52.372;9.918;2022-07-12T08:28:58;101712.00;;;27.10
11792;BMP180;5953;52.372;9.918;2022-07-12T08:31:25;101709.00;;;27.30
11792;BMP180;5953;52.372;9.918;2022-07-12T08:33:53;101702.00;;;26.90
11792;BMP180;5953;52.372;9.918;2022-07-12T08:36:21;101710.00;;;27.40
11792;BMP180;5953;52.372;9.918;2022-07-12T08:38:59;101709.00;;;27.20
11792;BMP180;5953;52.372;9.918;2022-07-12T08:41:27;101702.00;;;26.20
11792;BMP180;5953;52.372;9.918;2022-07-12T08:43:57;101701.00;;;26.90
11792;BMP180;5953;52.372;9.918;2022-07-12T08:46:25;101706.00;;;27.20
11792;BMP180;5953;52.372;9.918;2022-07-12T08:48:52;101705.00;;;27.50
11792;BMP180;5953;52.372;9.918;2022-07-12T08:51:21;101700.00;;;28.00
11792;BMP180;5953;52.372;9.918;2022-07-12T08:54:04;101698.00;;;28.50
11792;BMP180;5953;52.372;9.918;2022-07-12T08:56:33;101703.00;;;28.80
11792;BMP180;5953;52.372;9.918;2022-07-12T08:59:13;101712.00;;;28.70
11792;BMP180;5953;52.372;9.918;2022-07-12T09:01:43;101705.00;;;28.30
11792;BMP180;5953;52.372;9.918;2022-07-12T09:04:13;101720.00;;;28.60
11792;BMP180;5953;52.372;9.918;2022-07-12T09:06:41;101714.00;;;28.60
11792;BMP180;5953;52.372;9.918;2022-07-12T09:09:09;101710.00;;;27.80
11792;BMP180;5953;52.372;9.918;2022-07-12T09:11:38;101718.00;;;28.30
11792;BMP180;5953;52.372;9.918;2022-07-12T09:14:06;101727.00;;;28.60
11792;BMP180;5953;52.372;9.918;2022-07-12T09:16:36;101727.00;;;28.60
11792;BMP180;5953;52.372;9.918;2022-07-12T09:19:15;101715.00;;;29.00
11792;BMP180;5953;52.372;9.918;2022-07-12T09:21:47;101721.00;;;29.40
11792;BMP180;5953;52.372;9.918;2022-07-12T09:24:16;101722.00;;;29.60
11792;BMP180;5953;52.372;9.918;2022-07-12T09:26:45;101721.00;;;29.30
11792;BMP180;5953;52.372;9.918;2022-07-12T09:29:13;101711.00;;;29.00
11792;BMP180;5953;52.372;9.918;2022-07-12T09:31:47;101714.00;;;28.90
11792;BMP180;5953;52.372;9.918;2022-07-12T09:34:32;101709.00;;;28.50
11792;BMP180;5953;52.372;9.918;2022-07-12T09:37:18;101710.00;;;28.80
11792;BMP180;5953;52.372;9.918;2022-07-12T09:40:10;101701.00;;;28.90
11792;BMP180;5953;52.372;9.918;2022-07-12T09:42:39;101699.00;;;28.80
11792;BMP180;5953;52.372;9.918;2022-07-12T09:45:08;101695.00;;;29.10
11792;BMP180;5953;52.372;9.918;2022-07-12T09:47:38;101695.00;;;29.30
11792;BMP180;5953;52.372;9.918;2022-07-12T09:50:07;101703.00;;;29.30
11792;BMP180;5953;52.372;9.918;2022-07-12T09:52:37;101690.00;;;29.60
11792;BMP180;5953;52.372;9.918;2022-07-12T09:55:07;101693.00;;;29.70
11792;BMP180;5953;52.372;9.918;2022-07-12T09:57:39;101689.00;;;30.00
11792;BMP180;5953;52.372;9.918;2022-07-12T10:00:08;101685.00;;;29.70
11792;BMP180;5953;52.372;9.918;2022-07-12T10:02:39;101688.00;;;29.50
11792;BMP180;5953;52.372;9.918;2022-07-12T10:05:10;101700.00;;;29.80
11792;BMP180;5953;52.372;9.918;2022-07-12T10:07:38;101702.00;;;29.60
11792;BMP180;5953;52.372;9.918;2022-07-12T10:10:08;101698.00;;;29.50
11792;BMP180;5953;52.372;9.918;2022-07-12T10:12:36;101694.00;;;29.50
11792;BMP180;5953;52.372;9.918;2022-07-12T10:15:09;101696.00;;;29.50
11792;BMP180;5953;52.372;9.918;2022-07-12T10:17:39;101693.00;;;29.80
11792;BMP180;5953;52.372;9.918;2022-07-12T10:20:16;101697.00;;;29.80
11792;BMP180;5953;52.372;9.918;2022-07-12T10:22:45;101691.00;;;30.00
11792;BMP180;5953;52.372;9.918;2022-07-12T10:25:34;101688.00;;;29.70
11792;BMP180;5953;52.372;9.918;2022-07-12T10:28:02;101684.00;;;29.30
11792;BMP180;5953;52.372;9.918;2022-07-12T10:30:30;101695.00;;;30.10
11792;BMP180;5953;52.372;9.918;2022-07-12T10:33:15;101706.00;;;30.30
11792;BMP180;5953;52.372;9.918;2022-07-12T10:35:58;101692.00;;;29.80
11792;BMP180;5953;52.372;9.918;2022-07-12T10:38:26;101689.00;;;30.30
11792;BMP180;5953;52.372;9.918;2022-07-12T10:40:55;101694.00;;;30.20
11792;BMP180;5953;52.372;9.918;2022-07-12T10:43:25;101684.00;;;29.90
11792;BMP180;5953;52.372;9.918;2022-07-12T10:46:16;101679.00;;;29.90
11792;BMP180;5953;52.372;9.918;2022-07-12T10:48:47;101673.00;;;30.20
11792;BMP180;5953;52.372;9.918;2022-07-12T10:51:16;101675.00;;;30.50
11792;BMP180;5953;52.372;9.918;2022-07-12T10:53:46;101679.00;;;30.50
11792;BMP180;5953;52.372;9.918;2022-07-12T10:56:18;101658.00;;;30.40
11792;BMP180;5953;52.372;9.918;2022-07-12T10:58:56;101666.00;;;30.20
11792;BMP180;5953;52.372;9.918;2022-07-12T11:01:26;101663.00;;;30.30
11792;BMP180;5953;52.372;9.918;2022-07-12T11:04:03;101647.00;;;30.60
11792;BMP180;5953;52.372;9.918;2022-07-12T11:06:34;101656.00;;;30.50
11792;BMP180;5953;52.372;9.918;2022-07-12T11:09:04;101655.00;;;30.40
11792;BMP180;5953;52.372;9.918;2022-07-12T11:11:33;101644.00;;;30.50
11792;BMP180;5953;52.372;9.918;2022-07-12T11:14:02;101643.00;;;30.80
11792;BMP180;5953;52.372;9.918;2022-07-12T11:16:30;101639.00;;;30.60
11792;BMP180;5953;52.372;9.918;2022-07-12T11:18:59;101640.00;;;30.80
11792;BMP180;5953;52.372;9.918;2022-07-12T11:21:33;101648.00;;;30.80
11792;BMP180;5953;52.372;9.918;2022-07-12T11:24:01;101637.00;;;31.30
11792;BMP180;5953;52.372;9.918;2022-07-12T11:26:32;101639.00;;;31.40
11792;BMP180;5953;52.372;9.918;2022-07-12T11:29:00;101634.00;;;31.80
11792;BMP180;5953;52.372;9.918;2022-07-12T11:31:27;101644.00;;;31.40
11792;BMP180;5953;52.372;9.918;2022-07-12T11:33:58;101644.00;;;31.70
11792;BMP180;5953;52.372;9.918;2022-07-12T11:36:28;101640.00;;;31.60
11792;BMP180;5953;52.372;9.918;2022-07-12T11:38:56;101641.00;;;31.70
11792;BMP180;5953;52.372;9.918;2022-07-12T11:41:24;101655.00;;;31.50
11792;BMP180;5953;52.372;9.918;2022-07-12T11:43:52;101633.00;;;31.40
11792;BMP180;5953;52.372;9.918;2022-07-12T11:46:20;101636.00;;;31.70
11792;BMP180;5953;52.372;9.918;2022-07-12T11:48:47;101632.00;;;31.90
11792;BMP180;5953;52.372;9.918;2022-07-12T11:51:15;101626.00;;;31.80
11792;BMP180;5953;52.372;9.918;2022-07-12T11:53:51;101623.00;;;31.80
11792;BMP180;5953;52.372;9.918;2022-07-12T11:56:29;101617.00;;;31.80
11792;BMP180;5953;52.372;9.918;2022-07-12T11:58:57;101618.00;;;31.90
11792;BMP180;5953;52.372;9.918;2022-07-12T12:01:25;101621.00;;;32.30
11792;BMP180;5953;52.372;9.918;2022-07-12T12:03:53;101613.00;;;32.20
11792;BMP180;5953;52.372;9.918;2022-07-12T12:06:23;101618.00;;;32.30
11792;BMP180;5953;52.372;9.918;2022-07-12T12:08:52;101620.00;;;32.40
11792;BMP180;5953;52.372;9.918;2022-07-12T12:11:26;101618.00;;;32.40
11792;BMP180;5953;52.372;9.918;2022-07-12T12:13:56;101624.00;;;32.40
11792;BMP180;5953;52.372;9.918;2022-07-12T12:16:24;101616.00;;;32.50
11792;BMP180;5953;52.372;9.918;2022-07-12T12:18:52;101614.00;;;32.30
11792;BMP180;5953;52.372;9.918;2022-07-12T12:21:25;101620.00;;;32.40
11792;BMP180;5953;52.372;9.918;2022-07-12T12:24:08;101609.00;;;32.10
11792;BMP180;5953;52.372;9.918;2022-07-12T12:26:36;101620.00;;;32.60
11792;BMP180;5953;52.372;9.918;2022-07-12T12:29:04;101621.00;;;32.60
11792;BMP180;5953;52.372;9.918;2022-07-12T12:31:32;101614.00;;;32.90
11792;BMP180;5953;52.372;9.918;2022-07-12T12:34:09;101613.00;;;32.80
11792;BMP180;5953;52.372;9.918;2022-07-12T12:36:38;101608.00;;;32.50
11792;BMP180;5953;52.372;9.918;2022-07-12T12:39:08;101615.00;;;32.80
11792;BMP180;5953;52.372;9.918;2022-07-12T12:41:41;101616.00;;;32.60
11792;BMP180;5953;52.372;9.918;2022-07-12T12:44:11;101602.00;;;32.90
11792;BMP180;5953;52.372;9.918;2022-07-12T12:46:46;101605.00;;;33.00
11792;BMP180;5953;52.372;9.918;2022-07-12T12:49:14;101612.00;;;33.20
11792;BMP180;5953;52.372;9.918;2022-07-12T12:51:53;101614.00;;;33.20
11792;BMP180;5953;52.372;9.918;2022-07-12T12:54:33;101602.00;;;33.20
11792;BMP180;5953;52.372;9.918;2022-07-12T12:57:01;101599.00;;;33.20
11792;BMP180;5953;52.372;9.918;2022-07-12T12:59:30;101608.00;;;33.10
11792;BMP180;5953;52.372;9.918;2022-07-12T13:01:58;101605.00;;;33.00
11792;BMP180;5953;52.372;9.918;2022-07-12T13:04:29;101602.00;;;33.30
11792;BMP180;5953;52.372;9.918;2022-07-12T13:06:57;101595.00;;;32.80
11792;BMP180;5953;52.372;9.918;2022-07-12T13:09:25;101586.00;;;32.50
11792;BMP180;5953;52.372;9.918;2022-07-12T13:11:55;101593.00;;;32.90
11792;BMP180;5953;52.372;9.918;2022-07-12T13:14:23;101591.00;;;32.70
11792;BMP180;5953;52.372;9.918;2022-07-12T13:16:51;101579.00;;;32.90
11792;BMP180;5953;52.372;9.918;2022-07-12T13:19:19;101586.00;;;32.90
11792;BMP180;5953;52.372;9.918;2022-07-12T13:21:47;101594.00;;;33.00
11792;BMP180;5953;52.372;9.918;2022-07-12T13:24:15;101598.00;;;32.60
11792;BMP180;5953;52.372;9.918;2022-07-12T13:26:43;101604.00;;;33.00
11792;BMP180;5953;52.372;9.918;2022-07-12T13:29:12;101603.00;;;32.80
11792;BMP180;5953;52.372;9.918;2022-07-12T13:31:40;101599.00;;;33.20
11792;BMP180;5953;52.372;9.918;2022-07-12T13:34:08;101593.00;;;33.10
11792;BMP180;5953;52.372;9.918;2022-07-12T13:36:36;101606.00;;;32.70
11792;BMP180;5953;52.372;9.918;2022-07-12T13:39:04;101596.00;;;33.20
11792;BMP180;5953;52.372;9.918;2022-07-12T13:41:46;101589.00;;;33.50
11792;BMP180;5953;52.372;9.918;2022-07-12T13:44:15;101595.00;;;33.60
11792;BMP180;5953;52.372;9.918;2022-07-12T13:46:48;101594.00;;;33.80
11792;BMP180;5953;52.372;9.918;2022-07-12T13:49:16;101597.00;;;33.60
11792;BMP180;5953;52.372;9.918;2022-07-12T13:51:44;101588.00;;;33.80
11792;BMP180;5953;52.372;9.918;2022-07-12T13:54:12;101592.00;;;33.20
11792;BMP180;5953;52.372;9.918;2022-07-12T13:56:39;101591.00;;;33.70
11792;BMP180;5953;52.372;9.918;2022-07-12T13:59:07;101589.00;;;33.90
11792;BMP180;5953;52.372;9.918;2022-07-12T14:01:36;101586.00;;;33.90
11792;BMP180;5953;52.372;9.918;2022-07-12T14:04:04;101591.00;;;34.10
11792;BMP180;5953;52.372;9.918;2022-07-12T14:06:32;101588.00;;;34.10
11792;BMP180;5953;52.372;9.918;2022-07-12T14:09:00;101587.00;;;33.80
11792;BMP180;5953;52.372;9.918;2022-07-12T14:11:28;101592.00;;;34.20
11792;BMP180;5953;52.372;9.918;2022-07-12T14:13:55;101582.00;;;34.20
11792;BMP180;5953;52.372;9.918;2022-07-12T14:16:23;101590.00;;;34.20
11792;BMP180;5953;52.372;9.918;2022-07-12T14:18:53;101582.00;;;33.90
11792;BMP180;5953;52.372;9.918;2022-07-12T14:21:21;101580.00;;;34.10